sensor_id;sensor_type;location;lat;lon;timestamp;temperature;humidity
46634;DHT22;32362;49.986;8.026;2022-07-29T00:00:35;20.70;88.70
46634;DHT22;32362;49.986;8.026;2022-07-29T00:27:17;20.50;85.20
46634;DHT22;32362;49.986;8.026;2022-07-29T00:53:57;20.50;82.90
46634;DHT22;32362;49.986;8.026;2022-07-29T01:47:54;20.20;84.40
46634;DHT22;32362;49.986;8.026;2022-07-29T02:14:40;20.00;87.20
46634;DHT22;32362;49.986;8.026;2022-07-29T02:41:33;19.70;82.80
46634;DHT22;32362;49.986;8.026;2022-07-29T03:08:16;19.50;81.20
46634;DHT22;32362;49.986;8.026;2022-07-29T03:34:57;19.30;84.70
46634;DHT22;32362;49.986;8.026;2022-07-29T04:01:38;18.50;88.60
46634;DHT22;32362;49.986;8.026;2022-07-29T04:28:20;18.40;89.10
46634;DHT22;32362;49.986;8.026;2022-07-29T04:55:01;17.90;90.20
46634;DHT22;32362;49.986;8.026;2022-07-29T05:21:42;17.80;90.80
46634;DHT22;32362;49.986;8.026;2022-07-29T05:48:23;18.50;90.70
46634;DHT22;32362;49.986;8.026;2022-07-29T06:15:05;19.30;89.20
46634;DHT22;32362;49.986;8.026;2022-07-29T06:41:49;21.20;80.50
46634;DHT22;32362;49.986;8.026;2022-07-29T07:08:30;22.00;74.00
46634;DHT22;32362;49.986;8.026;2022-07-29T07:35:11;22.60;68.20
46634;DHT22;32362;49.986;8.026;2022-07-29T08:01:52;22.90;66.60
46634;DHT22;32362;49.986;8.026;2022-07-29T08:28:32;23.70;66.10
46634;DHT22;32362;49.986;8.026;2022-07-29T08:55:15;24.60;62.90
46634;DHT22;32362;49.986;8.026;2022-07-29T09:21:57;25.10;60.90
46634;DHT22;32362;49.986;8.026;2022-07-29T09:48:38;27.00;56.50
46634;DHT22;32362;49.986;8.026;2022-07-29T10:15:22;28.50;53.10
46634;DHT22;32362;49.986;8.026;2022-07-29T11:09:30;33.80;43.70
46634;DHT22;32362;49.986;8.026;2022-07-29T11:36:14;34.40;44.30
46634;DHT22;32362;49.986;8.026;2022-07-29T12:02:56;34.20;45.10
46634;DHT22;32362;49.986;8.026;2022-07-29T12:29:37;34.10;44.40
46634;DHT22;32362;49.986;8.026;2022-07-29T12:56:18;34.50;42.50
46634;DHT22;32362;49.986;8.026;2022-07-29T13:23:00;35.30;40.30
46634;DHT22;32362;49.986;8.026;2022-07-29T13:49:41;35.00;41.00
46634;DHT22;32362;49.986;8.026;2022-07-29T14:16:21;34.70;41.40
46634;DHT22;32362;49.986;8.026;2022-07-29T14:43:02;33.30;43.50
46634;DHT22;32362;49.986;8.026;2022-07-29T15:09:46;30.20;50.90
46634;DHT22;32362;49.986;8.026;2022-07-29T15:36:28;30.10;50.20
46634;DHT22;32362;49.986;8.026;2022-07-29T16:03:08;29.50;56.40
46634;DHT22;32362;49.986;8.026;2022-07-29T16:29:49;29.00;56.50
46634;DHT22;32362;49.986;8.026;2022-07-29T16:56:30;27.20;75.10
46634;DHT22;32362;49.986;8.026;2022-07-29T17:23:10;23.20;99.90
46634;DHT22;32362;49.986;8.026;2022-07-29T17:49:51;23.90;99.90
46634;DHT22;32362;49.986;8.026;2022-07-29T18:16:32;22.10;99.90
46634;DHT22;32362;49.986;8.026;2022-07-29T18:43:12;21.90;99.90
46634;DHT22;32362;49.986;8.026;2022-07-29T19:09:53;22.10;99.90
46634;DHT22;32362;49.986;8.026;2022-07-29T19:36:34;22.00;99.90
46634;DHT22;32362;49.986;8.026;2022-07-29T20:03:15;22.10;99.90
46634;DHT22;32362;49.986;8.026;2022-07-29T20:29:55;22.00;99.90
46634;DHT22;32362;49.986;8.026;2022-07-29T20:56:36;21.90;98.60
46634;DHT22;32362;49.986;8.026;2022-07-29T21:23:17;21.70;89.10
46634;DHT22;32362;49.986;8.026;2022-07-29T21:49:58;22.20;80.70
